Time;durP1;ratioP1;P1;durP2;ratioP2;P2;SDS_P1;SDS_P2;PMS_P1;PMS_P2;Temp;Humidity;BMP_temperature;BMP_pressure;BME280_temperature;BME280_humidity;BME280_pressure;Samples;Min_cycle;Max_cycle;Signal;HPM_P1;HPM_P2
2021/06/02 00:00:16;;;;;;;9.02;4.85;;;;;;;18.08;67.12;100624.44;5050288;28;20052;-78
2021/06/02 00:03:30;;;;;;;7.35;4.63;;;;;;;17.97;67.93;100628.38;5052114;28;20047;-76
2021/06/02 00:06:36;;;;;;;8.65;4.75;;;;;;;17.80;69.07;100625.94;5050952;28;20476;-77
2021/06/02 00:09:40;;;;;;;9.18;4.80;;;;;;;17.79;69.40;100621.50;5051873;28;20404;-79
2021/06/02 00:12:45;;;;;;;8.48;4.72;;;;;;;17.87;69.93;100625.06;5052616;28;20124;-79
2021/06/02 00:15:51;;;;;;;9.73;4.70;;;;;;;17.97;69.58;100633.00;5050722;28;20123;-79
2021/06/02 00:18:57;;;;;;;10.18;4.45;;;;;;;17.97;69.54;100624.84;5051079;28;20052;-76
2021/06/02 00:22:03;;;;;;;7.85;4.40;;;;;;;17.90;69.94;100623.88;5051788;28;20044;-78
2021/06/02 00:25:08;;;;;;;8.35;4.50;;;;;;;17.94;69.83;100631.47;5052599;28;20044;-78
2021/06/02 00:28:15;;;;;;;5.18;3.95;;;;;;;18.00;69.59;100624.47;5050509;28;20044;-77
2021/06/02 00:31:20;;;;;;;7.63;4.28;;;;;;;17.99;69.47;100626.38;5051470;28;20052;-77
2021/06/02 00:34:25;;;;;;;6.53;4.20;;;;;;;17.95;69.76;100619.56;5052103;28;20052;-76
2021/06/02 00:37:29;;;;;;;6.10;4.30;;;;;;;17.77;69.77;100615.41;5052559;28;20511;-77
2021/06/02 00:40:41;;;;;;;8.35;3.53;;;;;;;17.58;70.33;100615.81;5050572;28;20052;-77
2021/06/02 00:43:47;;;;;;;8.38;4.15;;;;;;;17.34;71.36;100611.22;5052258;28;20511;-76
2021/06/02 00:46:52;;;;;;;5.35;3.72;;;;;;;17.26;71.55;100614.78;5050243;28;20056;-77
2021/06/02 00:49:59;;;;;;;5.30;3.95;;;;;;;17.22;71.46;100621.59;5051452;28;20048;-77
2021/06/02 00:53:04;;;;;;;6.03;3.60;;;;;;;17.26;71.67;100627.50;5053559;28;20072;-77
2021/06/02 00:56:12;;;;;;;6.55;3.80;;;;;;;17.35;71.65;100635.50;5056531;28;20048;-77
2021/06/02 00:59:32;;;;;;;7.38;3.80;;;;;;;17.43;71.04;100637.34;5054907;28;20404;-79
2021/06/02 01:02:39;;;;;;;6.93;3.35;;;;;;;17.54;70.86;100634.28;5054711;28;20070;-78
2021/06/02 01:05:44;;;;;;;5.35;3.50;;;;;;;17.65;69.87;100644.81;5054750;28;20060;-76
2021/06/02 01:08:49;;;;;;;4.75;3.53;;;;;;;17.66;69.60;100645.63;5056235;28;20443;-77
2021/06/02 01:11:54;;;;;;;9.02;3.35;;;;;;;17.72;69.62;100642.25;5053306;28;20040;-77
2021/06/02 01:14:59;;;;;;;11.10;4.07;;;;;;;17.73;69.36;100636.63;5054696;28;20044;-77
2021/06/02 01:18:05;;;;;;;6.65;3.20;;;;;;;17.72;69.16;100631.38;5055413;28;20048;-76
2021/06/02 01:21:18;;;;;;;6.38;3.20;;;;;;;17.69;68.55;100631.72;5056047;28;20051;-76
2021/06/02 01:24:25;;;;;;;4.80;3.20;;;;;;;17.73;68.65;100643.91;5055355;28;20499;-76
2021/06/02 01:27:30;;;;;;;7.28;3.67;;;;;;;17.63;69.12;100641.41;5055230;28;20052;-77
2021/06/02 01:30:35;;;;;;;6.45;3.35;;;;;;;17.66;69.05;100645.63;5054163;28;20052;-76
2021/06/02 01:34:04;;;;;;;7.72;3.30;;;;;;;17.64;69.59;100648.53;5050962;28;20578;-78
2021/06/02 01:37:23;;;;;;;8.10;3.60;;;;;;;17.63;69.53;100649.53;5055029;28;20419;-77
2021/06/02 01:41:05;;;;;;;4.38;3.60;;;;;;;17.59;69.78;100652.78;5054600;28;20514;-78
2021/06/02 01:44:24;;;;;;;6.57;4.63;;;;;;;17.41;70.74;100652.94;5055497;28;20044;-77
2021/06/02 01:48:06;;;;;;;5.97;3.53;;;;;;;17.25;71.38;100639.38;5055672;28;20043;-78
2021/06/02 01:51:32;;;;;;;8.63;3.70;;;;;;;17.13;70.41;100636.19;5054757;28;20044;-77
2021/06/02 01:55:27;;;;;;;4.07;3.50;;;;;;;17.03;70.66;100635.50;5016585;28;20072;-77
2021/06/02 01:59:09;;;;;;;8.32;3.67;;;;;;;16.92;70.54;100642.09;5013654;28;20570;-78
2021/06/02 02:02:34;;;;;;;8.95;3.38;;;;;;;16.80;70.95;100646.16;5007221;28;20517;-77
2021/06/02 02:06:00;;;;;;;5.90;3.55;;;;;;;16.81;71.13;100655.16;5011359;28;20129;-76
2021/06/02 02:09:38;;;;;;;4.95;3.70;;;;;;;16.90;70.76;100651.41;5012991;28;20053;-78
2021/06/02 02:12:57;;;;;;;9.45;3.50;;;;;;;16.92;70.35;100652.09;5012331;28;20049;-77
2021/06/02 02:16:23;;;;;;;5.20;3.95;;;;;;;16.78;70.82;100658.19;5012139;28;20053;-76
2021/06/02 02:19:59;;;;;;;4.80;3.60;;;;;;;16.73;71.11;100647.84;4998904;28;20056;-77
2021/06/02 02:23:25;;;;;;;5.88;3.78;;;;;;;16.71;70.75;100652.56;5012350;28;20592;-77
2021/06/02 02:26:34;;;;;;;9.23;3.83;;;;;;;16.61;71.22;100653.75;5013217;28;20069;-77
2021/06/02 02:29:59;;;;;;;5.35;3.90;;;;;;;16.46;71.57;100664.34;5023771;28;20044;-77
2021/06/02 02:33:15;;;;;;;6.28;3.55;;;;;;;16.37;71.63;100659.06;5053829;28;20048;-79
2021/06/02 02:36:30;;;;;;;7.45;4.28;;;;;;;16.37;71.75;100649.06;5053177;28;20104;-77
2021/06/02 02:40:04;;;;;;;10.68;4.10;;;;;;;16.22;71.87;100656.97;5052382;28;20044;-79
2021/06/02 02:43:34;;;;;;;6.90;4.10;;;;;;;16.18;72.45;100652.91;5053646;28;20048;-76
2021/06/02 02:47:03;;;;;;;4.25;3.65;;;;;;;16.09;72.69;100655.75;5036873;28;20048;-77
2021/06/02 02:50:25;;;;;;;6.78;4.32;;;;;;;16.02;72.88;100658.22;5053189;28;20059;-77
2021/06/02 02:54:04;;;;;;;9.27;4.05;;;;;;;15.97;73.30;100663.28;5053991;28;20060;-77
2021/06/02 02:57:31;;;;;;;6.47;4.25;;;;;;;15.95;73.47;100668.00;5049931;28;20072;-78
2021/06/02 03:00:41;;;;;;;8.77;4.25;;;;;;;15.93;73.44;100680.00;5052044;28;20515;-78
2021/06/02 03:04:04;;;;;;;7.97;4.47;;;;;;;15.83;73.51;100677.41;5053354;28;20052;-78
2021/06/02 03:07:10;;;;;;;7.88;4.40;;;;;;;15.76;74.11;100668.25;5052625;28;20051;-77
2021/06/02 03:10:18;;;;;;;6.30;4.45;;;;;;;15.69;74.24;100669.06;5051920;28;20506;-77
2021/06/02 03:13:32;;;;;;;6.03;4.07;;;;;;;15.63;74.41;100676.78;5052747;28;20048;-78
2021/06/02 03:16:41;;;;;;;10.65;4.53;;;;;;;15.62;74.48;100676.97;5050835;28;20059;-78
2021/06/02 03:19:55;;;;;;;6.60;4.47;;;;;;;15.60;74.54;100679.00;5052928;28;20040;-78
2021/06/02 03:23:14;;;;;;;6.93;3.95;;;;;;;15.53;74.15;100677.91;5052112;28;20048;-78
2021/06/02 03:26:26;;;;;;;6.10;3.80;;;;;;;15.52;74.18;100670.81;5051878;28;20044;-78
2021/06/02 03:29:58;;;;;;;5.15;3.60;;;;;;;15.59;73.93;100679.97;5053359;28;20040;-77
2021/06/02 03:33:24;;;;;;;6.50;3.80;;;;;;;15.60;74.07;100690.63;5052152;28;20048;-76
2021/06/02 03:36:47;;;;;;;5.43;4.10;;;;;;;15.59;74.38;100675.44;5052355;28;20506;-78
2021/06/02 03:40:14;;;;;;;6.78;3.85;;;;;;;15.66;74.23;100683.75;5053103;28;20040;-81
2021/06/02 03:43:31;;;;;;;6.60;4.45;;;;;;;15.68;73.32;100673.59;5051499;28;20044;-78
2021/06/02 03:46:59;;;;;;;4.47;3.80;;;;;;;15.70;73.68;100684.28;5051199;28;20048;-77
2021/06/02 03:50:17;;;;;;;8.82;3.88;;;;;;;15.73;73.62;100682.09;5051974;28;20055;-76
2021/06/02 03:53:46;;;;;;;8.60;3.90;;;;;;;15.83;73.17;100690.09;5051836;28;20040;-77
2021/06/02 03:56:59;;;;;;;4.90;3.20;;;;;;;15.95;72.95;100689.66;5052726;28;20503;-77
2021/06/02 04:00:11;;;;;;;4.32;3.00;;;;;;;16.04;72.32;100702.28;5051662;28;20063;-79
2021/06/02 04:03:28;;;;;;;5.93;3.65;;;;;;;16.15;72.30;100703.81;5050486;28;20534;-78
2021/06/02 04:06:58;;;;;;;8.38;3.58;;;;;;;16.26;71.79;100711.69;5052682;28;20055;-79
2021/06/02 04:10:07;;;;;;;6.82;3.67;;;;;;;16.31;71.84;100700.34;5053154;28;20040;-78
2021/06/02 04:13:34;;;;;;;8.77;3.95;;;;;;;16.48;70.87;100702.09;5052935;28;20059;-77
2021/06/02 04:16:42;;;;;;;9.23;3.83;;;;;;;16.77;69.85;100702.56;5050999;28;20498;-78
2021/06/02 04:19:50;;;;;;;10.65;3.55;;;;;;;16.98;69.37;100702.97;5051980;28;20044;-78
2021/06/02 04:22:56;;;;;;;6.60;4.32;;;;;;;17.27;67.80;100711.47;5053167;28;20040;-77
2021/06/02 04:26:01;;;;;;;7.93;4.20;;;;;;;17.57;67.18;100714.53;5050867;28;20499;-76
2021/06/02 04:29:11;;;;;;;7.55;4.50;;;;;;;17.92;65.89;100709.59;5051763;28;20074;-78
2021/06/02 04:32:16;;;;;;;9.30;4.47;;;;;;;18.50;63.76;100719.25;5050394;28;20048;-76
2021/06/02 04:35:19;;;;;;;6.63;4.25;;;;;;;19.01;61.93;100717.81;5050881;28;20044;-78
2021/06/02 04:38:24;;;;;;;5.72;4.30;;;;;;;19.36;60.40;100707.16;5051527;28;20503;-78
2021/06/02 04:41:29;;;;;;;8.23;4.57;;;;;;;19.79;58.87;100712.91;5052092;28;20048;-77
2021/06/02 04:44:35;;;;;;;7.22;4.15;;;;;;;20.13;57.96;100718.69;5049647;28;20040;-78
2021/06/02 04:47:43;;;;;;;7.85;3.60;;;;;;;20.30;56.70;100713.91;5048069;28;20048;-79
2021/06/02 04:51:14;;;;;;;5.63;3.80;;;;;;;20.30;56.42;100728.41;5051730;28;20064;-79
2021/06/02 04:55:02;;;;;;;9.20;3.90;;;;;;;20.59;55.99;100733.84;5052495;28;20044;-78
2021/06/02 04:58:37;;;;;;;3.72;3.05;;;;;;;21.08;54.15;100734.06;5051649;28;20052;-79
2021/06/02 05:01:42;;;;;;;6.72;3.00;;;;;;;21.65;52.90;100741.34;5050762;28;20048;-79
2021/06/02 05:05:17;;;;;;;8.00;2.60;;;;;;;22.05;51.07;100731.59;5051831;28;20514;-78
2021/06/02 05:08:56;;;;;;;5.65;3.17;;;;;;;22.89;49.18;100742.19;5051839;28;20147;-80
2021/06/02 05:12:22;;;;;;;5.15;3.85;;;;;;;24.05;46.81;100735.44;5049848;28;20510;-78
2021/06/02 05:16:09;;;;;;;6.40;3.92;;;;;;;23.47;47.25;100745.31;5051695;28;20052;-77
2021/06/02 05:23:03;;;;;;;8.93;5.03;;;;;;;21.66;52.68;100757.53;5051114;28;20048;-77
2021/06/02 05:26:50;;;;;;;6.93;5.87;;;;;;;21.14;54.37;100757.00;5051487;28;20060;-76
2021/06/02 05:30:28;;;;;;;8.25;6.22;;;;;;;20.86;55.82;100765.06;5030182;28;20583;-79
2021/06/02 05:33:56;;;;;;;9.88;6.60;;;;;;;22.39;53.18;100770.72;5029821;28;20044;-77
2021/06/02 05:37:31;;;;;;;8.77;6.75;;;;;;;24.56;46.82;100758.34;5028515;28;20152;-79
2021/06/02 05:41:26;;;;;;;8.32;6.53;;;;;;;26.89;41.45;100757.06;5022225;28;20464;-78
2021/06/02 05:44:55;;;;;;;9.98;6.40;;;;;;;29.11;36.72;100757.16;5033504;28;20064;-78
2021/06/02 05:48:23;;;;;;;12.30;6.03;;;;;;;30.33;34.66;100758.25;5031679;28;20052;-78
2021/06/02 05:51:40;;;;;;;7.25;5.43;;;;;;;29.92;35.77;100756.78;5033020;28;20053;-78
2021/06/02 05:54:58;;;;;;;7.65;5.75;;;;;;;30.78;34.09;100762.56;5032253;28;20061;-79
2021/06/02 05:58:39;;;;;;;9.57;6.43;;;;;;;31.92;32.60;100765.25;5031868;28;20048;-79
2021/06/02 06:01:49;;;;;;;10.93;6.28;;;;;;;32.53;31.80;100759.06;5032251;28;20603;-78
2021/06/02 06:05:24;;;;;;;7.95;5.40;;;;;;;31.53;32.81;100762.66;5033086;28;20041;-77
2021/06/02 06:09:08;;;;;;;11.00;5.72;;;;;;;28.67;37.99;100755.94;5054464;28;20044;-79
2021/06/02 06:12:42;;;;;;;8.07;6.25;;;;;;;27.57;40.54;100771.44;5054109;28;20048;-79
2021/06/02 06:15:58;;;;;;;7.78;6.45;;;;;;;26.71;41.91;100771.69;5053938;28;20393;-79
2021/06/02 06:19:08;;;;;;;10.02;7.18;;;;;;;25.44;45.13;100775.94;5053393;28;20052;-78
2021/06/02 06:22:34;;;;;;;12.07;7.55;;;;;;;26.57;44.08;100778.41;5055732;28;20048;-79
2021/06/02 06:25:52;;;;;;;8.95;6.63;;;;;;;28.84;39.26;100768.75;5052728;28;20052;-80
2021/06/02 06:29:04;;;;;;;9.35;6.65;;;;;;;29.94;36.88;100766.53;5052441;28;20048;-78
2021/06/02 06:32:09;;;;;;;7.65;6.85;;;;;;;28.97;37.76;100771.25;5053987;28;20048;-77
2021/06/02 06:35:16;;;;;;;9.02;5.68;;;;;;;31.92;33.46;100779.97;5053623;28;20040;-80
2021/06/02 06:38:44;;;;;;;6.70;5.95;;;;;;;33.41;31.20;100779.47;5052801;28;20047;-79
2021/06/02 06:41:49;;;;;;;6.65;5.30;;;;;;;34.74;29.63;100774.50;5046744;28;20044;-78
2021/06/02 06:44:59;;;;;;;8.55;5.40;;;;;;;34.38;28.96;100781.28;5053903;28;20044;-80
2021/06/02 06:48:22;;;;;;;9.82;5.47;;;;;;;30.70;34.88;100795.41;5052122;28;20048;-78
2021/06/02 06:51:29;;;;;;;7.15;5.88;;;;;;;30.63;35.37;100797.53;5051820;28;20151;-79
2021/06/02 06:54:35;;;;;;;31.00;27.92;;;;;;;30.16;36.08;100794.28;5053824;28;20040;-77
2021/06/02 06:57:40;;;;;;;22.60;19.83;;;;;;;32.53;32.05;100792.44;5039838;28;20041;-78
2021/06/02 07:00:45;;;;;;;8.75;6.20;;;;;;;35.91;27.25;100792.38;5052730;28;20049;-79
2021/06/02 07:03:50;;;;;;;9.65;5.65;;;;;;;37.05;26.08;100797.16;5051949;28;20530;-78
2021/06/02 07:06:55;;;;;;;9.63;5.13;;;;;;;38.88;24.85;100791.16;5052156;28;20052;-77
2021/06/02 07:09:59;;;;;;;9.35;5.13;;;;;;;38.88;24.10;100788.34;5051643;28;20506;-77
2021/06/02 07:13:09;;;;;;;6.40;4.70;;;;;;;40.63;22.47;100792.91;5052981;28;20048;-79
2021/06/02 07:16:15;;;;;;;8.27;5.05;;;;;;;38.99;24.38;100789.78;5053639;28;20396;-78
2021/06/02 07:19:22;;;;;;;6.20;4.65;;;;;;;41.33;22.16;100800.50;5051768;28;20047;-79
2021/06/02 07:22:28;;;;;;;7.13;4.82;;;;;;;38.86;23.66;100804.66;5052445;28;20068;-79
2021/06/02 07:25:33;;;;;;;8.60;5.68;;;;;;;39.28;23.67;100802.72;5053559;28;20052;-79
2021/06/02 07:28:40;;;;;;;10.23;4.80;;;;;;;40.68;21.96;100803.22;5053667;28;20048;-82
2021/06/02 07:31:44;;;;;;;9.90;4.68;;;;;;;42.28;20.69;100799.38;5051090;28;20503;-78
2021/06/02 07:34:49;;;;;;;6.97;4.68;;;;;;;42.47;20.80;100804.66;5047744;28;20056;-79
2021/06/02 07:37:53;;;;;;;7.40;4.35;;;;;;;41.41;21.50;100797.69;5053567;28;20044;-76
2021/06/02 07:40:57;;;;;;;6.78;4.40;;;;;;;41.75;21.43;100801.75;5053339;28;20424;-72
2021/06/02 07:44:02;;;;;;;11.73;4.22;;;;;;;43.23;20.39;100806.38;5050127;28;20055;-80
2021/06/02 07:47:06;;;;;;;10.20;4.60;;;;;;;42.95;19.96;100801.53;5052291;28;20044;-77
2021/06/02 07:50:12;;;;;;;8.57;4.75;;;;;;;43.51;19.48;100805.84;5050372;28;20056;-79
2021/06/02 07:53:16;;;;;;;7.25;4.65;;;;;;;42.33;20.42;100804.84;5047417;28;20044;-81
2021/06/02 07:56:20;;;;;;;6.78;4.38;;;;;;;40.99;21.15;100794.75;5051712;28;20048;-79
2021/06/02 07:59:24;;;;;;;8.52;4.30;;;;;;;42.63;20.81;100794.50;5051012;28;20064;-77
2021/06/02 08:02:29;;;;;;;6.90;4.53;;;;;;;41.76;21.07;100792.09;5050588;28;20048;-78
2021/06/02 08:05:34;;;;;;;8.45;5.70;;;;;;;39.12;24.04;100795.72;5051009;28;20052;-77
2021/06/02 08:08:38;;;;;;;7.40;5.68;;;;;;;38.57;23.54;100801.28;5051746;28;20056;-77
2021/06/02 08:11:47;;;;;;;9.13;5.80;;;;;;;39.10;22.78;100798.00;5052507;28;20064;-79
2021/06/02 08:14:51;;;;;;;10.70;6.50;;;;;;;35.92;26.84;100797.66;5053376;28;20519;-77
2021/06/02 08:17:56;;;;;;;12.00;7.30;;;;;;;32.82;31.36;100808.72;5053904;28;20499;-78
2021/06/02 08:21:01;;;;;;;12.20;7.70;;;;;;;31.70;32.84;100803.34;5049364;28;20047;-78
2021/06/02 08:24:06;;;;;;;15.07;6.50;;;;;;;30.49;33.95;100804.53;5053037;28;20048;-77
2021/06/02 08:27:12;;;;;;;11.98;7.00;;;;;;;29.86;35.12;100814.00;5053511;28;20056;-78
2021/06/02 08:30:17;;;;;;;10.13;6.32;;;;;;;29.81;34.51;100816.66;5051815;28;20048;-78
2021/06/02 08:33:22;;;;;;;9.35;7.55;;;;;;;28.81;36.70;100819.00;5033762;28;20052;-79
2021/06/02 08:36:27;;;;;;;9.95;7.55;;;;;;;28.12;38.35;100824.50;5043121;28;20052;-78
2021/06/02 08:39:33;;;;;;;10.50;6.63;;;;;;;28.34;36.91;100817.31;5052763;28;20051;-79
2021/06/02 08:42:40;;;;;;;7.93;7.18;;;;;;;28.60;36.75;100818.75;5053814;28;20072;-79
2021/06/02 08:45:46;;;;;;;10.10;8.07;;;;;;;27.84;38.15;100818.75;5054102;28;20052;-79
2021/06/02 08:48:50;;;;;;;7.55;6.25;;;;;;;28.96;37.77;100824.03;5053766;28;20384;-78
2021/06/02 08:51:56;;;;;;;8.93;6.25;;;;;;;29.30;37.59;100828.66;5052878;28;20060;-79
2021/06/02 08:55:00;;;;;;;11.18;7.00;;;;;;;29.65;36.37;100821.03;5052875;28;20491;-78
2021/06/02 08:58:04;;;;;;;9.40;6.15;;;;;;;29.54;35.38;100827.47;5053707;28;20052;-78
2021/06/02 09:01:09;;;;;;;10.52;6.82;;;;;;;28.40;38.24;100821.88;5053410;28;20064;-80
2021/06/02 09:04:13;;;;;;;9.82;7.10;;;;;;;27.55;38.99;100824.06;5053461;28;20045;-81
2021/06/02 09:07:18;;;;;;;10.40;6.60;;;;;;;27.75;38.31;100824.59;5052648;28;20404;-79
2021/06/02 09:10:24;;;;;;;12.43;7.13;;;;;;;28.11;38.99;100829.19;5051733;28;20052;-78
2021/06/02 09:13:29;;;;;;;8.88;6.15;;;;;;;27.94;38.50;100833.69;5050446;28;20060;-78
2021/06/02 09:16:33;;;;;;;10.52;8.63;;;;;;;27.40;38.49;100828.31;5051009;28;20052;-78
2021/06/02 09:19:42;;;;;;;7.97;5.35;;;;;;;27.50;38.68;100823.94;5051942;28;20103;-78
2021/06/02 09:22:46;;;;;;;19.83;15.02;;;;;;;27.85;38.11;100829.56;5052106;28;20052;-78
2021/06/02 09:25:51;;;;;;;13.90;6.90;;;;;;;27.05;39.48;100825.34;5051586;28;20044;-78
2021/06/02 09:29:12;;;;;;;7.97;5.05;;;;;;;27.64;38.19;100833.72;5054565;28;20503;-77
2021/06/02 09:32:18;;;;;;;7.40;6.65;;;;;;;27.74;38.29;100824.84;5057114;28;20064;-79
2021/06/02 09:35:37;;;;;;;9.98;6.13;;;;;;;27.68;38.83;100828.53;5057054;28;20048;-78
2021/06/02 09:38:52;;;;;;;17.27;11.70;;;;;;;27.53;38.74;100823.44;5057285;28;20052;-80
2021/06/02 09:42:28;;;;;;;8.75;7.32;;;;;;;27.05;39.82;100828.09;5056347;28;20045;-81
2021/06/02 09:45:33;;;;;;;12.98;7.57;;;;;;;26.76;41.36;100817.84;5056822;28;20044;-78
2021/06/02 09:48:47;;;;;;;9.45;7.35;;;;;;;26.26;42.32;100826.16;5056870;28;20478;-77
2021/06/02 09:51:52;;;;;;;9.25;6.78;;;;;;;26.31;41.42;100823.56;5056544;28;20056;-78
2021/06/02 09:55:13;;;;;;;7.75;5.88;;;;;;;26.62;41.65;100817.13;5055904;28;20048;-77
2021/06/02 09:58:18;;;;;;;16.25;13.00;;;;;;;26.63;41.29;100834.47;5056363;28;20048;-77
2021/06/02 10:01:22;;;;;;;12.82;7.38;;;;;;;26.29;40.02;100822.94;5056384;28;20053;-77
2021/06/02 10:04:44;;;;;;;7.75;5.18;;;;;;;26.77;40.21;100836.91;5056443;28;20048;-77
2021/06/02 10:07:48;;;;;;;9.67;4.57;;;;;;;27.03;39.17;100828.31;5056508;28;20487;-77
2021/06/02 10:10:54;;;;;;;10.68;5.60;;;;;;;27.18;39.74;100832.63;5056298;28;20051;-78
2021/06/02 10:13:59;;;;;;;15.98;7.07;;;;;;;27.27;38.75;100823.78;5056149;28;20056;-77
2021/06/02 10:17:04;;;;;;;8.07;5.28;;;;;;;27.38;39.32;100828.53;5056220;28;20056;-78
2021/06/02 10:20:13;;;;;;;9.88;6.25;;;;;;;27.38;39.79;100825.78;5055372;28;20060;-77
2021/06/02 10:23:18;;;;;;;6.88;4.80;;;;;;;27.69;38.24;100831.09;5056493;28;20052;-77
2021/06/02 10:26:22;;;;;;;7.88;6.05;;;;;;;27.44;40.16;100824.88;5055109;28;20052;-77
2021/06/02 10:29:26;;;;;;;11.60;6.13;;;;;;;27.40;40.59;100829.19;5056216;28;20056;-80
2021/06/02 10:32:31;;;;;;;18.40;11.52;;;;;;;27.84;39.66;100832.56;5054827;28;20071;-77
2021/06/02 10:35:35;;;;;;;7.80;6.57;;;;;;;27.67;38.68;100835.16;5055804;28;20049;-80
2021/06/02 10:38:47;;;;;;;8.38;4.72;;;;;;;27.97;39.13;100829.59;5056041;28;20048;-77
2021/06/02 10:41:57;;;;;;;11.90;7.68;;;;;;;28.24;37.66;100828.97;5055191;28;20369;-77
2021/06/02 10:45:21;;;;;;;8.32;4.78;;;;;;;28.10;39.01;100840.44;5055692;28;20052;-78
2021/06/02 10:48:50;;;;;;;7.95;4.53;;;;;;;27.89;38.75;100838.22;5054741;28;20498;-78
2021/06/02 10:52:06;;;;;;;5.47;3.75;;;;;;;27.57;39.40;100832.97;5055600;28;20108;-77
2021/06/02 10:55:33;;;;;;;17.50;11.80;;;;;;;27.88;39.62;100834.59;5054665;28;20051;-77
2021/06/02 10:58:47;;;;;;;10.43;5.72;;;;;;;28.14;38.78;100830.63;5055217;28;20049;-78
2021/06/02 11:02:10;;;;;;;18.25;12.60;;;;;;;28.32;37.74;100836.03;5055411;28;20048;-79
2021/06/02 11:05:15;;;;;;;28.48;23.20;;;;;;;28.36;38.51;100837.25;5055235;28;20045;-77
2021/06/02 11:08:20;;;;;;;6.75;4.07;;;;;;;28.22;37.68;100833.88;5055368;28;20376;-78
2021/06/02 11:11:32;;;;;;;7.22;3.28;;;;;;;28.13;37.04;100840.81;5054194;28;20056;-77
2021/06/02 11:14:37;;;;;;;8.40;3.00;;;;;;;27.86;37.46;100838.69;5055072;28;20048;-77
2021/06/02 11:17:41;;;;;;;4.03;2.67;;;;;;;27.55;37.39;100832.34;5054301;28;20059;-77
2021/06/02 11:20:48;;;;;;;5.30;3.05;;;;;;;27.53;37.44;100828.13;5055061;28;20040;-77
2021/06/02 11:23:53;;;;;;;7.00;2.30;;;;;;;26.99;37.26;100838.13;5055031;28;20047;-77
2021/06/02 11:27:16;;;;;;;5.32;2.20;;;;;;;27.04;37.24;100837.44;5054957;28;20052;-77
2021/06/02 11:30:21;;;;;;;;;;;;;;;27.13;38.02;100830.56;5054602;28;20044;-78
2021/06/02 11:33:31;;;;;;;9.52;2.50;;;;;;;27.38;39.15;100820.28;5053858;28;19917;-78
2021/06/02 11:37:02;;;;;;;7.03;2.50;;;;;;;27.38;37.27;100830.44;5054624;28;20412;-77
2021/06/02 11:40:13;;;;;;;4.32;2.42;;;;;;;27.50;38.12;100826.72;5054708;28;20498;-78
2021/06/02 11:43:19;;;;;;;6.53;2.53;;;;;;;27.52;36.88;100829.22;5054695;28;20056;-78
2021/06/02 11:46:24;;;;;;;6.38;1.92;;;;;;;27.32;37.22;100825.84;5054635;28;20476;-78
2021/06/02 11:49:29;;;;;;;6.32;1.88;;;;;;;27.21;37.36;100832.16;5054622;28;20088;-78
2021/06/02 11:52:34;;;;;;;3.75;1.80;;;;;;;27.27;36.80;100823.78;5053641;28;20060;-80
2021/06/02 11:55:39;;;;;;;6.10;1.98;;;;;;;27.46;36.09;100830.97;5053692;28;20056;-77
2021/06/02 11:58:47;;;;;;;3.97;2.17;;;;;;;27.64;36.99;100821.81;5054392;28;20051;-81
2021/06/02 12:01:52;;;;;;;4.70;1.70;;;;;;;27.54;37.99;100827.91;5053549;28;20060;-80
2021/06/02 12:05:24;;;;;;;5.80;1.63;;;;;;;27.69;37.09;100821.97;5053512;28;20056;-79
2021/06/02 12:08:29;;;;;;;4.07;1.70;;;;;;;27.75;37.20;100821.84;5054185;28;20052;-76
2021/06/02 12:11:34;;;;;;;6.28;2.20;;;;;;;27.90;37.32;100826.13;5053257;28;20484;-78
2021/06/02 12:14:39;;;;;;;5.68;2.50;;;;;;;27.93;36.66;100820.09;5053513;28;20048;-78
2021/06/02 12:17:45;;;;;;;4.75;2.00;;;;;;;27.83;37.05;100825.34;5050628;28;20040;-79
2021/06/02 12:21:19;;;;;;;10.27;1.95;;;;;;;27.74;36.95;100817.44;5032932;28;20048;-78
2021/06/02 12:24:26;;;;;;;5.35;1.95;;;;;;;27.58;38.10;100815.31;5033212;28;20060;-79
2021/06/02 12:27:47;;;;;;;4.53;1.48;;;;;;;27.82;35.62;100819.00;5034065;28;20052;-78
2021/06/02 12:30:51;;;;;;;6.80;2.28;;;;;;;27.75;37.04;100818.28;5033933;28;20060;-77
2021/06/02 12:34:06;;;;;;;3.90;1.90;;;;;;;27.56;38.58;100825.75;5046213;28;20510;-79
2021/06/02 12:37:11;;;;;;;7.60;1.77;;;;;;;27.38;37.57;100820.28;5033135;28;20044;-82
2021/06/02 12:40:17;;;;;;;4.10;2.13;;;;;;;27.54;38.38;100821.53;5033439;28;20044;-78
2021/06/02 12:43:23;;;;;;;5.00;2.05;;;;;;;27.56;36.63;100825.75;5033950;28;20064;-81
2021/06/02 12:46:27;;;;;;;8.07;1.73;;;;;;;27.64;37.63;100822.66;5039604;28;20048;-80
2021/06/02 12:49:32;;;;;;;4.95;1.90;;;;;;;27.54;37.04;100810.50;5056504;28;20052;-80
2021/06/02 12:52:36;;;;;;;3.67;2.22;;;;;;;27.67;37.45;100811.16;5057462;28;20515;-82
2021/06/02 12:55:43;;;;;;;5.68;2.10;;;;;;;27.90;37.17;100817.84;5057037;28;20052;-83
2021/06/02 12:58:54;;;;;;;3.50;2.42;;;;;;;27.99;36.72;100808.13;5057817;28;20519;-78
2021/06/02 13:02:04;;;;;;;5.18;2.40;;;;;;;28.20;36.68;100815.84;5057715;28;20047;-79
2021/06/02 13:05:09;;;;;;;6.45;2.20;;;;;;;28.20;36.52;100810.34;5056606;28;20056;-78
2021/06/02 13:08:14;;;;;;;4.90;2.13;;;;;;;28.11;35.76;100818.13;5018149;28;20064;-80
2021/06/02 13:11:27;;;;;;;6.72;3.50;;;;;;;28.00;35.64;100810.66;5017807;28;20053;-78
2021/06/02 13:14:35;;;;;;;3.75;2.20;;;;;;;27.94;36.30;100817.13;5017766;28;20057;-78
2021/06/02 13:17:40;;;;;;;3.85;2.00;;;;;;;27.70;36.39;100818.94;5011832;28;20057;-79
2021/06/02 13:20:44;;;;;;;6.72;1.80;;;;;;;27.62;36.70;100818.47;4997955;28;20049;-81
2021/06/02 13:23:48;;;;;;;3.28;1.88;;;;;;;27.64;36.21;100821.81;4997169;28;20097;-80
2021/06/02 13:26:58;;;;;;;6.50;2.00;;;;;;;27.74;35.72;100820.19;4998185;28;20049;-81
2021/06/02 13:30:06;;;;;;;4.20;2.25;;;;;;;27.14;35.75;100826.72;5000817;28;20049;-81
2021/06/02 13:33:13;;;;;;;4.53;1.80;;;;;;;27.34;36.75;100827.31;5016588;28;20465;-78
2021/06/02 13:36:24;;;;;;;3.28;1.80;;;;;;;27.49;35.73;100821.41;5016642;28;20484;-79
2021/06/02 13:39:28;;;;;;;3.55;1.80;;;;;;;27.36;36.49;100825.16;5017327;28;20068;-78
2021/06/02 13:42:32;;;;;;;3.13;1.70;;;;;;;27.41;37.66;100816.19;5017267;28;20057;-78
2021/06/02 13:45:55;;;;;;;3.58;1.83;;;;;;;27.31;36.80;100822.25;5016726;28;20065;-79
2021/06/02 13:49:00;;;;;;;3.42;2.00;;;;;;;27.06;37.91;100819.59;5016888;28;20053;-77
2021/06/02 13:52:04;;;;;;;4.20;2.05;;;;;;;27.00;38.74;100828.81;5016966;28;20385;-77
2021/06/02 13:55:10;;;;;;;3.20;1.90;;;;;;;27.13;38.76;100823.09;5016284;28;20045;-79
2021/06/02 13:58:15;;;;;;;5.75;1.90;;;;;;;27.07;38.45;100823.19;5016122;28;20041;-81
2021/06/02 14:01:26;;;;;;;5.93;1.70;;;;;;;27.28;38.63;100825.47;5016900;28;20105;-81
2021/06/02 14:04:31;;;;;;;5.03;2.10;;;;;;;27.54;38.05;100818.78;5016601;28;20049;-79
2021/06/02 14:07:36;;;;;;;5.65;2.28;;;;;;;27.50;38.36;100815.66;5046895;28;20040;-79
2021/06/02 14:10:40;;;;;;;5.88;1.80;;;;;;;27.44;36.12;100815.75;5050324;28;20400;-80
2021/06/02 14:13:44;;;;;;;8.07;1.67;;;;;;;27.54;36.57;100811.34;5054396;28;20048;-79
2021/06/02 14:16:49;;;;;;;4.30;1.70;;;;;;;27.65;37.31;100810.53;5054163;28;20099;-80
2021/06/02 14:19:53;;;;;;;7.28;1.70;;;;;;;27.60;37.33;100813.16;5052038;28;20044;-79
2021/06/02 14:22:57;;;;;;;4.43;2.00;;;;;;;27.41;38.67;100822.56;5056297;28;20056;-76
2021/06/02 14:26:02;;;;;;;3.67;2.20;;;;;;;27.38;39.14;100808.38;5055947;28;20399;-79
2021/06/02 14:29:08;;;;;;;3.70;1.70;;;;;;;27.45;38.57;100817.44;5055129;28;20048;-79
2021/06/02 14:32:13;;;;;;;4.03;2.22;;;;;;;27.46;38.31;100825.47;5054028;28;20056;-82
2021/06/02 14:35:17;;;;;;;4.30;2.67;;;;;;;27.47;39.48;100821.66;5054589;28;20048;-78
2021/06/02 14:38:22;;;;;;;5.82;1.83;;;;;;;27.32;39.03;100821.19;5052190;28;20518;-75
2021/06/02 14:41:27;;;;;;;5.63;1.98;;;;;;;27.32;38.97;100820.34;5052389;28;20526;-79
2021/06/02 14:44:32;;;;;;;3.60;1.88;;;;;;;27.30;38.65;100820.59;5052929;28;20051;-79
2021/06/02 14:47:37;;;;;;;3.20;1.80;;;;;;;27.25;38.05;100814.91;5052948;28;20060;-80
2021/06/02 14:50:41;;;;;;;6.70;2.00;;;;;;;27.20;38.40;100811.16;5053329;28;20408;-80
2021/06/02 14:53:45;;;;;;;3.78;1.88;;;;;;;27.26;38.77;100810.25;5054023;28;20056;-75
2021/06/02 14:56:50;;;;;;;3.45;1.83;;;;;;;27.36;38.75;100819.63;5049694;28;20503;-80